Time;durP1;ratioP1;P1;durP2;ratioP2;P2;SDS_P1;SDS_P2;PMS_P1;PMS_P2;Temp;Humidity;BMP_temperature;BMP_pressure;BME280_temperature;BME280_humidity;BME280_pressure;Samples;Min_cycle;Max_cycle;Signal;HPM_P1;HPM_P2
2023/06/16 00:01:30;;;;;;;31.70;16.10;;;;;;;-144.73;66.90;84380.59;106655;1268;25342;-62
2023/06/16 00:04:17;;;;;;;28.10;15.70;;;;;;;-144.73;67.30;84390.87;106855;1274;25491;-63
2023/06/16 00:07:03;;;;;;;29.20;15.70;;;;;;;-144.73;67.32;84398.77;106829;1266;25348;-66
2023/06/16 00:09:49;;;;;;;28.90;16.30;;;;;;;-144.73;67.68;84379.40;106828;1274;25403;-64
2023/06/16 00:12:36;;;;;;;27.80;16.10;;;;;;;-144.73;67.87;84376.24;106827;1271;25339;-64
2023/06/16 00:15:21;;;;;;;32.80;15.30;;;;;;;-144.73;68.08;84392.05;106841;1276;25377;-65
2023/06/16 00:18:07;;;;;;;31.00;17.30;;;;;;;-144.73;68.47;84395.22;106836;1267;25413;-64
2023/06/16 00:20:52;;;;;;;31.20;15.90;;;;;;;-144.73;69.01;84387.30;106804;1266;25434;-65
2023/06/16 00:23:38;;;;;;;30.80;17.60;;;;;;;-144.73;68.91;84403.52;106816;1276;25408;-62
2023/06/16 00:26:26;;;;;;;26.70;15.70;;;;;;;-144.73;69.23;84395.61;106801;1276;25332;-61
2023/06/16 00:29:11;;;;;;;28.00;16.30;;;;;;;-144.73;69.32;84406.28;106802;1276;25346;-65
2023/06/16 00:31:57;;;;;;;25.90;16.80;;;;;;;-144.73;69.57;84418.53;106786;1268;25342;-64
2023/06/16 00:34:43;;;;;;;28.70;16.20;;;;;;;-144.73;69.75;84416.96;106803;1273;25427;-65
2023/06/16 00:37:29;;;;;;;31.70;16.10;;;;;;;-144.73;69.83;84437.90;106792;1272;25413;-64
2023/06/16 00:40:15;;;;;;;29.00;16.60;;;;;;;-144.73;70.20;84433.55;106799;1267;25472;-64
2023/06/16 00:43:02;;;;;;;29.50;16.40;;;;;;;-144.73;70.44;84439.48;106817;1266;25384;-64
2023/06/16 00:45:49;;;;;;;28.20;16.40;;;;;;;-144.73;70.57;84444.23;106693;1276;25390;-64
2023/06/16 00:48:36;;;;;;;33.80;15.90;;;;;;;-144.73;70.94;84446.60;106652;1275;25492;-64
2023/06/16 00:51:25;;;;;;;31.20;18.00;;;;;;;-144.73;71.22;84458.05;106808;1268;25408;-64
2023/06/16 00:54:12;;;;;;;27.10;17.20;;;;;;;-144.73;71.49;84459.64;106854;1266;25356;-64
2023/06/16 00:56:58;;;;;;;29.50;15.70;;;;;;;-144.73;71.73;84467.55;106800;1265;25360;-64
2023/06/16 00:59:45;;;;;;;35.80;17.60;;;;;;;-144.73;72.02;84480.20;106813;1265;25342;-67
2023/06/16 01:02:32;;;;;;;30.30;17.20;;;;;;;-144.73;72.15;84476.64;106812;1275;25479;-67
2023/06/16 01:05:21;;;;;;;28.00;16.60;;;;;;;-144.73;72.40;84481.77;106827;1265;25407;-66
2023/06/16 01:08:32;;;;;;;31.20;17.50;;;;;;;-144.73;72.61;84484.94;106832;1276;25602;-66
2023/06/16 01:11:21;;;;;;;29.60;16.90;;;;;;;-144.73;72.76;84490.86;106811;1276;25467;-65
2023/06/16 01:14:12;;;;;;;28.30;16.30;;;;;;;-144.73;72.87;84496.40;106823;1276;25353;-66
2023/06/16 01:17:02;;;;;;;33.50;18.60;;;;;;;-144.73;73.03;84507.87;106735;1274;25339;-65
2023/06/16 01:20:08;;;;;;;34.20;17.60;;;;;;;-144.73;73.07;84499.56;106893;1269;25356;-65
2023/06/16 01:23:33;;;;;;;31.30;17.70;;;;;;;-144.73;73.27;84507.08;106816;1266;25367;-64
2023/06/16 01:26:22;;;;;;;35.20;18.50;;;;;;;-144.73;73.47;84509.84;106820;1276;25452;-64
2023/06/16 01:29:11;;;;;;;28.90;16.90;;;;;;;-144.73;73.65;84513.40;106813;1270;25441;-63
2023/06/16 01:32:00;;;;;;;30.20;17.40;;;;;;;-144.73;73.87;84529.61;106801;1274;25410;-64
2023/06/16 01:34:47;;;;;;;29.20;16.50;;;;;;;-144.73;73.89;84523.28;106830;1267;25342;-64
2023/06/16 01:37:33;;;;;;;24.90;15.60;;;;;;;-144.73;73.82;84516.56;106769;1273;25415;-63
2023/06/16 01:40:19;;;;;;;24.60;15.40;;;;;;;-144.73;73.69;84509.05;106802;1271;25431;-64
2023/06/16 01:43:06;;;;;;;25.70;15.50;;;;;;;-144.73;73.57;84496.40;106844;1276;25367;-64
2023/06/16 01:45:53;;;;;;;27.80;16.00;;;;;;;-144.73;73.42;84495.61;106805;1264;25347;-64
2023/06/16 01:48:38;;;;;;;22.60;13.80;;;;;;;-144.73;73.29;84488.49;106791;1267;25331;-63
2023/06/16 01:51:25;;;;;;;25.10;13.80;;;;;;;-144.73;73.16;84489.69;106795;1276;25453;-64
2023/06/16 01:54:10;;;;;;;19.90;12.40;;;;;;;-144.73;72.81;84467.15;106793;1261;25331;-66
2023/06/16 01:56:57;;;;;;;17.80;11.20;;;;;;;-144.73;72.45;84465.17;106823;1274;25517;-65
2023/06/16 01:59:44;;;;;;;21.40;11.90;;;;;;;-144.73;71.98;84437.91;106805;1266;25484;-65
2023/06/16 02:02:31;;;;;;;19.20;10.70;;;;;;;-144.73;71.71;84418.54;106798;1271;25359;-65
2023/06/16 02:05:22;;;;;;;19.50;11.90;;;;;;;-144.73;71.27;84418.54;106780;1267;25427;-64
2023/06/16 02:08:09;;;;;;;26.10;13.90;;;;;;;-144.73;70.88;84407.86;106786;1267;25485;-65
2023/06/16 02:10:55;;;;;;;23.60;12.60;;;;;;;-144.73;70.87;84393.63;106817;1266;25488;-65
2023/06/16 02:13:42;;;;;;;26.60;15.50;;;;;;;-144.73;70.54;84381.78;106814;1276;25356;-65
2023/06/16 02:16:29;;;;;;;25.20;13.30;;;;;;;-144.73;70.52;84395.61;106927;1274;25412;-65
2023/06/16 02:19:15;;;;;;;23.00;12.10;;;;;;;-144.73;70.45;84389.29;109501;1273;24240;-65
2023/06/16 02:22:02;;;;;;;20.80;10.70;;;;;;;-144.73;70.44;84371.90;107154;1276;25861;-64
2023/06/16 02:24:48;;;;;;;27.90;10.60;;;;;;;-144.73;70.20;84370.31;106869;1276;25410;-64
2023/06/16 02:27:33;;;;;;;17.80;10.70;;;;;;;-144.73;70.02;84356.88;106790;1276;25433;-64
2023/06/16 02:30:19;;;;;;;18.90;10.40;;;;;;;-144.73;69.86;84342.25;106811;1267;25331;-64
2023/06/16 02:33:05;;;;;;;22.80;9.40;;;;;;;-144.73;69.58;84331.58;106799;1276;25397;-64
2023/06/16 02:35:51;;;;;;;21.60;9.90;;;;;;;-144.73;69.48;84333.95;106782;1274;25690;-64
2023/06/16 02:38:37;;;;;;;19.20;10.30;;;;;;;-144.73;69.41;84332.36;106804;1267;25354;-65
2023/06/16 02:41:23;;;;;;;24.00;10.40;;;;;;;-144.73;69.29;84339.08;106780;1266;25358;-64
2023/06/16 02:44:09;;;;;;;26.10;10.70;;;;;;;-144.73;69.18;84324.85;106760;1267;25380;-66
2023/06/16 02:46:56;;;;;;;21.90;10.90;;;;;;;-144.73;69.07;84318.13;106856;1274;25355;-66
2023/06/16 02:49:42;;;;;;;22.20;11.90;;;;;;;-144.73;68.91;84309.83;106759;1271;25346;-66
2023/06/16 02:52:28;;;;;;;31.70;12.30;;;;;;;-144.73;68.80;84307.46;106812;1268;25358;-65
2023/06/16 02:55:15;;;;;;;29.90;14.00;;;;;;;-144.73;68.66;84306.27;106820;1276;25345;-65
2023/06/16 02:58:04;;;;;;;33.90;13.70;;;;;;;-144.73;68.53;84297.19;106787;1276;25509;-65
2023/06/16 03:00:49;;;;;;;34.40;14.20;;;;;;;-144.73;68.59;84296.80;106824;1271;25530;-63
2023/06/16 03:04:11;;;;;;;29.40;12.40;;;;;;;-144.73;68.73;84303.52;106709;1274;25410;-64
2023/06/16 03:07:12;;;;;;;27.10;13.30;;;;;;;-144.73;68.63;84292.45;106789;1265;25387;-64
2023/06/16 03:10:03;;;;;;;28.20;13.80;;;;;;;-144.73;68.66;84282.56;106770;1266;25523;-63
2023/06/16 03:12:59;;;;;;;25.40;14.70;;;;;;;-144.73;68.68;84277.02;106759;1267;25372;-65
2023/06/16 03:15:44;;;;;;;34.10;16.10;;;;;;;-144.73;68.59;84294.82;106882;1261;25353;-65
2023/06/16 03:18:30;;;;;;;26.60;16.20;;;;;;;-144.73;68.81;84290.86;106776;1267;25529;-65
2023/06/16 03:21:16;;;;;;;31.50;18.30;;;;;;;-144.73;68.92;84277.42;106775;1274;25357;-64
2023/06/16 03:24:05;;;;;;;34.50;18.30;;;;;;;-144.73;69.00;84283.75;106801;1267;25328;-64
2023/06/16 03:26:51;;;;;;;27.80;17.00;;;;;;;-144.73;68.89;84277.04;106820;1268;25478;-63
2023/06/16 03:29:43;;;;;;;;;;;;;;;-144.73;69.03;84277.42;106803;1264;25296;-64
2023/06/16 03:32:29;;;;;;;34.40;14.70;;;;;;;-144.73;68.92;84275.05;106800;1267;25447;-65
2023/06/16 03:35:15;;;;;;;27.40;16.30;;;;;;;-144.73;68.56;84248.96;106709;1267;25526;-64
2023/06/16 03:38:01;;;;;;;31.50;15.20;;;;;;;-144.73;68.20;84231.17;106803;1270;25392;-65
2023/06/16 03:40:47;;;;;;;31.90;17.00;;;;;;;-144.73;68.18;84238.29;106840;1274;25404;-64
2023/06/16 03:43:32;;;;;;;23.60;13.50;;;;;;;-144.73;67.99;84227.23;106766;1276;25389;-64
2023/06/16 03:46:19;;;;;;;27.40;12.80;;;;;;;-144.73;67.76;84217.34;106786;1264;25320;-64
2023/06/16 03:49:07;;;;;;;28.90;15.50;;;;;;;-144.73;67.72;84209.84;106777;1276;25401;-65
2023/06/16 03:51:53;;;;;;;25.00;13.10;;;;;;;-144.73;67.42;84211.41;106768;1266;25331;-65
2023/06/16 03:54:39;;;;;;;31.90;17.70;;;;;;;-144.73;67.25;84220.11;106792;1273;25492;-65
2023/06/16 03:57:25;;;;;;;32.20;13.90;;;;;;;-144.73;67.18;84209.84;106744;1267;25384;-65
2023/06/16 04:00:11;;;;;;;25.50;14.10;;;;;;;-144.73;67.02;84199.55;106787;1264;25379;-65
2023/06/16 04:03:05;;;;;;;26.90;12.20;;;;;;;-144.73;66.98;84195.21;106772;1266;25361;-66
2023/06/16 04:05:53;;;;;;;21.50;11.60;;;;;;;-144.73;66.73;84177.02;106765;1264;25353;-65
2023/06/16 04:08:40;;;;;;;23.10;12.00;;;;;;;-144.73;66.19;84171.89;106804;1267;25317;-66
2023/06/16 04:11:27;;;;;;;23.80;12.20;;;;;;;-144.73;65.92;84176.23;106796;1274;25342;-65
2023/06/16 04:14:13;;;;;;;28.80;13.10;;;;;;;-144.73;65.63;84153.30;106827;1267;25357;-64
2023/06/16 04:16:59;;;;;;;25.70;13.30;;;;;;;-144.73;65.57;84108.64;106780;1267;25356;-65
2023/06/16 04:19:46;;;;;;;22.90;13.00;;;;;;;-144.73;65.14;84096.39;106793;1267;25410;-66
2023/06/16 04:22:32;;;;;;;23.00;12.70;;;;;;;-144.73;64.55;84078.61;106772;1273;25731;-65
2023/06/16 04:25:18;;;;;;;18.40;11.20;;;;;;;-144.73;64.47;84064.77;106803;1266;25349;-66
2023/06/16 04:28:05;;;;;;;27.60;12.60;;;;;;;-144.73;63.91;84074.26;106793;1266;25376;-64
2023/06/16 04:30:51;;;;;;;26.40;12.90;;;;;;;-144.73;63.47;84055.30;106781;1267;25410;-65
2023/06/16 04:33:41;;;;;;;17.30;9.30;;;;;;;-144.73;63.22;84057.27;106797;1266;25474;-65
2023/06/16 04:36:29;;;;;;;19.70;11.40;;;;;;;-144.73;63.11;84065.17;106797;1265;25512;-66
2023/06/16 04:39:16;;;;;;;18.80;10.80;;;;;;;-144.73;63.01;84023.27;106714;1274;25396;-64
2023/06/16 04:42:04;;;;;;;21.80;9.50;;;;;;;-144.73;62.47;83965.96;106835;1264;26094;-63
2023/06/16 04:44:50;;;;;;;18.70;9.40;;;;;;;-144.73;61.79;83968.73;106727;1266;25342;-63
2023/06/16 04:47:38;;;;;;;18.30;9.20;;;;;;;-144.73;61.31;83945.80;106756;1267;25349;-63
2023/06/16 04:50:24;;;;;;;20.60;10.50;;;;;;;-144.73;60.81;83905.10;106779;1271;25359;-63
2023/06/16 04:53:09;;;;;;;21.40;9.70;;;;;;;-144.73;60.11;83895.61;106790;1267;25352;-63
2023/06/16 04:55:55;;;;;;;17.60;9.20;;;;;;;-144.73;59.00;83853.33;106783;1266;25331;-63
2023/06/16 04:58:41;;;;;;;21.10;10.40;;;;;;;-144.73;58.72;83871.90;106777;1266;25491;-63
2023/06/16 05:01:26;;;;;;;18.20;9.30;;;;;;;-144.73;58.53;83896.80;106793;1263;25383;-64
2023/06/16 05:04:14;;;;;;;21.50;10.50;;;;;;;-144.73;58.57;83865.97;106758;1274;25407;-64
2023/06/16 05:06:59;;;;;;;19.80;9.50;;;;;;;-144.73;58.63;83872.30;106694;1270;25345;-64
2023/06/16 05:09:46;;;;;;;23.00;9.50;;;;;;;-144.73;58.63;83871.11;106805;1267;25845;-64
2023/06/16 05:12:32;;;;;;;14.70;7.70;;;;;;;-144.73;57.56;83866.36;106869;1267;25347;-64
2023/06/16 05:15:18;;;;;;;14.10;6.90;;;;;;;-144.73;56.83;83829.21;106724;1267;25416;-65
2023/06/16 05:18:04;;;;;;;19.30;7.00;;;;;;;-144.73;56.09;83795.23;106777;1267;25419;-65
2023/06/16 05:20:50;;;;;;;15.10;4.90;;;;;;;-144.73;54.89;83795.23;106880;1265;25663;-65
2023/06/16 05:23:37;;;;;;;16.70;6.00;;;;;;;-144.73;54.44;83796.81;106781;1267;25357;-65
2023/06/16 05:26:22;;;;;;;11.00;5.20;;;;;;;-144.73;53.07;83790.09;106784;1260;25352;-67
2023/06/16 05:29:09;;;;;;;11.20;4.30;;;;;;;-144.73;53.17;83784.95;106684;1266;25443;-65
2023/06/16 05:31:55;;;;;;;12.50;5.40;;;;;;;-144.73;53.47;83773.48;106655;1264;25375;-66
2023/06/16 05:34:41;;;;;;;14.50;4.70;;;;;;;-144.73;52.54;83742.27;106622;1267;26558;-67
2023/06/16 05:37:28;;;;;;;14.30;5.50;;;;;;;-144.73;52.58;83697.21;106732;1261;25408;-66
2023/06/16 05:40:14;;;;;;;12.40;5.70;;;;;;;-144.73;52.37;83692.87;106857;1268;25459;-66
2023/06/16 05:43:00;;;;;;;14.60;6.10;;;;;;;-144.73;52.12;83663.23;106792;1267;25512;-64
2023/06/16 05:45:45;;;;;;;17.40;4.90;;;;;;;-144.73;52.53;83646.63;106788;1265;24210;-66
2023/06/16 05:48:31;;;;;;;18.00;6.50;;;;;;;-144.73;52.72;83631.61;106777;1267;22650;-71
2023/06/16 05:51:17;;;;;;;12.50;5.80;;;;;;;-144.73;52.24;83562.45;107378;1273;25432;-65
2023/06/16 05:54:02;;;;;;;10.10;5.40;;;;;;;-144.73;50.93;83292.15;108293;1254;25418;-69
2023/06/16 05:56:47;;;;;;;9.70;4.10;;;;;;;-144.73;46.52;82837.33;107082;1264;25402;-65
2023/06/16 05:59:35;;;;;;;10.50;4.40;;;;;;;-144.73;41.57;82527.17;106709;1264;25460;-74
2023/06/16 06:02:21;;;;;;;13.50;4.30;;;;;;;-144.73;39.48;82718.02;106776;1269;25601;-68
2023/06/16 06:05:08;;;;;;;13.50;4.50;;;;;;;-144.73;38.95;82580.52;106888;1267;25609;-64
2023/06/16 06:07:54;;;;;;;9.50;4.20;;;;;;;-144.73;39.09;82727.10;106794;1267;25357;-67
2023/06/16 06:10:41;;;;;;;12.30;5.30;;;;;;;-144.73;39.76;82844.05;106846;1266;25360;-74
2023/06/16 06:13:26;;;;;;;13.20;4.80;;;;;;;-144.73;40.34;82982.74;106925;1265;24261;-72
2023/06/16 06:16:13;;;;;;;13.10;4.40;;;;;;;-144.73;40.64;82819.95;106893;1264;25324;-73
2023/06/16 06:18:58;;;;;;;12.50;5.20;;;;;;;-144.73;40.26;82761.87;106714;1271;25467;-62
2023/06/16 06:21:45;;;;;;;9.30;4.90;;;;;;;-144.73;39.95;82827.85;106734;1273;25464;-67
2023/06/16 06:24:31;;;;;;;17.10;5.40;;;;;;;-144.73;39.68;82700.23;106725;1271;25418;-65
2023/06/16 06:27:17;;;;;;;14.40;4.60;;;;;;;-144.73;39.35;82420.90;106783;1267;25422;-68
2023/06/16 06:30:04;;;;;;;10.40;4.20;;;;;;;-144.73;37.16;82114.33;106814;1267;25344;-68
2023/06/16 06:32:49;;;;;;;9.70;4.30;;;;;;;-144.73;35.65;81963.81;106795;1267;25386;-65
2023/06/16 06:35:36;;;;;;;10.50;4.10;;;;;;;-144.73;34.31;81769.06;106813;1267;25351;-61
2023/06/16 06:38:21;;;;;;;12.00;3.80;;;;;;;-144.73;32.44;81656.88;106967;1261;25491;-68
2023/06/16 06:41:07;;;;;;;8.30;3.20;;;;;;;-144.73;31.05;81612.24;106811;1268;25479;-71
2023/06/16 06:43:54;;;;;;;10.20;3.40;;;;;;;-144.73;31.00;81558.52;107693;1260;22423;-61
2023/06/16 06:46:59;;;;;;;9.70;3.30;;;;;;;-144.73;30.82;81416.33;107084;1267;25521;-71
2023/06/16 06:49:45;;;;;;;10.10;3.10;;;;;;;-144.73;29.86;81225.95;107646;1263;25460;-65
2023/06/16 06:52:30;;;;;;;11.30;3.10;;;;;;;-144.73;29.49;81180.13;107604;1261;22900;-66
2023/06/16 06:55:16;;;;;;;9.80;3.40;;;;;;;-144.73;29.34;81211.34;107110;1267;25904;-66
2023/06/16 06:58:02;;;;;;;8.30;3.10;;;;;;;-144.73;29.88;81221.21;107067;1260;25419;-74
2023/06/16 07:00:47;;;;;;;7.20;3.10;;;;;;;-144.73;29.61;81144.59;107287;1265;25321;-66
2023/06/16 07:03:33;;;;;;;7.70;3.30;;;;;;;-144.73;28.95;80901.30;107341;1268;22700;-71
2023/06/16 07:06:18;;;;;;;10.50;2.80;;;;;;;-144.73;27.65;80642.23;107263;1264;25444;-67
2023/06/16 07:09:04;;;;;;;8.90;3.10;;;;;;;-144.73;26.73;80610.64;107059;1262;25348;-65
2023/06/16 07:11:51;;;;;;;8.30;2.80;;;;;;;-144.73;27.10;80806.13;107072;1276;24238;-71
2023/06/16 07:14:37;;;;;;;11.30;3.00;;;;;;;-144.73;27.72;80953.44;107078;1262;23318;-65
2023/06/16 07:17:22;;;;;;;9.20;2.90;;;;;;;-144.73;27.52;81046.24;107153;1267;24245;-66
2023/06/16 07:20:09;;;;;;;9.30;2.60;;;;;;;-144.73;27.88;81207.39;106968;1262;25441;-70
2023/06/16 07:22:54;;;;;;;11.20;2.90;;;;;;;-144.73;28.49;81243.72;106912;1266;85079;-66
2023/06/16 07:25:39;;;;;;;9.40;3.40;;;;;;;-144.73;28.93;81259.52;106749;1262;25649;-63
2023/06/16 07:28:25;;;;;;;11.00;3.50;;;;;;;-144.73;28.95;81231.88;107020;1264;22766;-60
2023/06/16 07:31:10;;;;;;;7.30;3.00;;;;;;;-144.73;28.87;81160.39;107027;1262;25317;-67
2023/06/16 07:33:56;;;;;;;8.20;3.60;;;;;;;-144.73;29.06;81193.16;107323;1267;22530;-68
2023/06/16 07:36:41;;;;;;;8.60;3.00;;;;;;;-144.73;29.16;81190.40;106963;1262;25331;-63
2023/06/16 07:39:26;;;;;;;11.00;3.30;;;;;;;-144.73;28.89;81246.48;107293;1264;25328;-62
2023/06/16 07:42:13;;;;;;;8.80;3.40;;;;;;;-144.73;29.51;81246.48;106969;1258;25505;-71
2023/06/16 07:44:59;;;;;;;10.00;4.30;;;;;;;-144.73;29.34;81198.70;106903;1265;25406;-64
2023/06/16 07:47:48;;;;;;;10.10;3.50;;;;;;;-144.73;29.14;81145.38;107284;1260;25419;-67
2023/06/16 07:50:34;;;;;;;11.30;3.30;;;;;;;-144.73;29.07;81066.00;107012;1265;25346;-62
2023/06/16 07:53:20;;;;;;;10.50;3.90;;;;;;;-144.73;28.83;81110.63;107008;1264;25450;-66
2023/06/16 07:56:06;;;;;;;7.10;2.90;;;;;;;-144.73;29.18;81524.95;107203;1262;23193;-64
2023/06/16 07:58:52;;;;;;;8.90;3.20;;;;;;;-144.73;30.17;81860.31;107072;1270;25356;-64
2023/06/16 08:01:37;;;;;;;6.90;3.20;;;;;;;-144.73;30.12;81522.58;107003;1267;23239;-60
2023/06/16 08:04:25;;;;;;;10.50;3.20;;;;;;;-144.73;29.59;81263.08;107278;1261;25335;-63
2023/06/16 08:07:11;;;;;;;9.40;3.30;;;;;;;-144.73;29.17;81154.07;107180;1267;26501;-66
2023/06/16 08:09:57;;;;;;;8.30;3.40;;;;;;;-144.73;29.02;81198.30;106895;1267;25377;-68
2023/06/16 08:12:43;;;;;;;11.40;2.90;;;;;;;-144.73;29.20;81182.11;107228;1261;23310;-67
2023/06/16 08:15:29;;;;;;;11.50;3.80;;;;;;;-144.73;28.84;81163.15;106607;1267;25701;-65
2023/06/16 08:18:14;;;;;;;7.80;3.00;;;;;;;-144.73;28.28;80983.05;107170;1261;25566;-68
2023/06/16 08:21:00;;;;;;;9.40;3.00;;;;;;;-144.73;27.53;80722.00;106874;1267;22557;-61
2023/06/16 08:23:46;;;;;;;10.20;3.20;;;;;;;-144.73;26.87;80739.39;107042;1264;25332;-75
2023/06/16 08:26:32;;;;;;;10.50;3.00;;;;;;;-144.73;27.44;80861.81;106995;1262;25507;-59
2023/06/16 08:29:19;;;;;;;13.80;3.60;;;;;;;-144.73;27.94;81026.50;106936;1267;25331;-63
2023/06/16 08:32:06;;;;;;;12.00;3.10;;;;;;;-144.73;28.37;81110.62;106992;1261;23413;-73
2023/06/16 08:34:51;;;;;;;8.60;2.80;;;;;;;-144.73;28.39;81280.06;107224;1265;22605;-72
2023/06/16 08:37:39;;;;;;;8.90;3.20;;;;;;;-144.73;29.10;81793.16;107245;1261;25441;-66
2023/06/16 08:40:24;;;;;;;12.20;3.10;;;;;;;-144.73;29.79;81875.73;106767;1268;25521;-68
2023/06/16 08:43:13;;;;;;;9.80;3.10;;;;;;;-144.73;29.88;81572.73;106703;1268;25332;-73
2023/06/16 08:45:59;;;;;;;7.40;3.50;;;;;;;-144.73;29.51;81494.14;106714;1267;25356;-65
2023/06/16 08:48:45;;;;;;;9.20;2.90;;;;;;;-144.73;30.01;81610.66;106708;1269;25416;-65
2023/06/16 08:51:34;;;;;;;8.00;3.20;;;;;;;-144.73;30.09;81718.89;106759;1267;25355;-64
2023/06/16 08:54:20;;;;;;;6.90;3.00;;;;;;;-144.73;30.14;81639.50;106714;1267;25410;-64
2023/06/16 08:57:11;;;;;;;9.10;3.50;;;;;;;-144.73;29.58;81739.44;106792;1264;23782;-62
2023/06/16 09:00:00;;;;;;;8.30;3.50;;;;;;;-144.73;29.78;81788.81;107868;1260;23156;-64
2023/06/16 09:02:48;;;;;;;7.60;3.60;;;;;;;-144.73;30.20;81856.36;107209;1270;22523;-64
2023/06/16 09:05:36;;;;;;;8.20;3.50;;;;;;;-144.73;30.45;81904.16;106938;1267;25315;-64
2023/06/16 09:08:21;;;;;;;12.30;4.10;;;;;;;-144.73;30.28;81884.80;106770;1261;25400;-64
2023/06/16 09:11:07;;;;;;;11.00;3.50;;;;;;;-144.73;30.51;81936.95;106924;1260;25346;-63
2023/06/16 09:13:54;;;;;;;12.40;5.00;;;;;;;-144.73;30.36;81970.92;107015;1255;22694;-66
2023/06/16 09:16:41;;;;;;;6.50;3.60;;;;;;;-144.73;30.94;82156.98;107395;1262;25441;-63
2023/06/16 09:19:27;;;;;;;9.90;3.70;;;;;;;-144.73;31.22;82229.67;107111;1259;23124;-64
2023/06/16 09:22:20;;;;;;;7.10;4.20;;;;;;;-144.73;30.86;82141.19;107035;1262;25483;-65
2023/06/16 09:25:11;;;;;;;9.90;4.10;;;;;;;-144.73;30.65;82197.68;107180;1260;25588;-64
2023/06/16 09:27:59;;;;;;;8.20;4.30;;;;;;;-144.73;31.03;82308.30;107319;1261;23541;-64
2023/06/16 09:30:44;;;;;;;10.30;3.70;;;;;;;-144.73;31.25;82334.38;107514;1262;25479;-62
2023/06/16 09:33:32;;;;;;;9.10;4.00;;;;;;;-144.73;31.41;82405.88;107384;1262;25367;-62
2023/06/16 09:36:26;;;;;;;8.30;4.10;;;;;;;-144.73;31.70;82546.93;107437;1262;22960;-63
2023/06/16 09:39:24;;;;;;;14.00;4.60;;;;;;;-144.73;32.39;82648.08;107034;1268;25352;-71
2023/06/16 09:42:16;;;;;;;7.30;4.30;;;;;;;-144.73;33.10;82746.85;107007;1267;25350;-63
2023/06/16 09:45:08;;;;;;;;;;;;;;;-144.73;33.33;82862.62;106979;1267;22690;-68
2023/06/16 09:47:53;;;;;;;8.00;4.60;;;;;;;-144.73;34.25;82951.52;107066;1261;22656;-70
2023/06/16 09:50:40;;;;;;;14.90;4.90;;;;;;;-144.73;34.21;82998.95;107079;1267;25628;-61
2023/06/16 09:53:26;;;;;;;10.70;5.10;;;;;;;-144.73;34.44;83001.31;107340;1270;23259;-64
2023/06/16 09:56:19;;;;;;;10.50;4.60;;;;;;;-144.73;34.47;83025.02;107295;1258;25434;-63
2023/06/16 09:59:05;;;;;;;18.10;5.30;;;;;;;-144.73;34.46;83027.00;107030;1267;25328;-66
2023/06/16 10:01:53;;;;;;;9.40;4.40;;;;;;;-144.73;34.83;82990.25;106990;1262;25565;-59
2023/06/16 10:04:41;;;;;;;11.80;4.60;;;;;;;-144.73;34.76;82955.88;106987;1262;25360;-61
2023/06/16 10:07:26;;;;;;;9.20;4.40;;;;;;;-144.73;34.53;82894.63;107292;1259;23641;-63
2023/06/16 10:10:12;;;;;;;9.70;4.70;;;;;;;-144.73;33.92;82831.80;107511;1262;25339;-66
2023/06/16 10:12:59;;;;;;;9.10;4.50;;;;;;;-144.73;33.74;82818.37;107297;1262;25419;-66
2023/06/16 10:15:48;;;;;;;9.40;4.80;;;;;;;-144.73;34.08;82859.46;107278;1267;24281;-62
2023/06/16 10:18:35;;;;;;;7.30;4.10;;;;;;;-144.73;34.06;82928.61;107214;1265;25500;-63
2023/06/16 10:21:22;;;;;;;9.70;4.20;;;;;;;-144.73;34.54;82983.92;108003;1262;25402;-66
2023/06/16 10:24:08;;;;;;;11.30;4.70;;;;;;;-144.73;34.65;82968.52;107305;1260;25528;-62
2023/06/16 10:26:54;;;;;;;9.10;5.30;;;;;;;-144.73;34.75;82968.52;106825;1260;25406;-67
2023/06/16 10:29:41;;;;;;;10.10;4.70;;;;;;;-144.73;34.39;82993.02;107096;1262;25513;-68
2023/06/16 10:32:27;;;;;;;9.40;4.20;;;;;;;-144.73;34.40;82994.98;107136;1266;23175;-65
2023/06/16 10:35:14;;;;;;;11.60;4.70;;;;;;;-144.73;34.59;82987.48;107264;1260;25668;-67
2023/06/16 10:38:01;;;;;;;11.00;4.60;;;;;;;-144.73;34.82;82983.53;108016;1262;25333;-65
2023/06/16 10:40:47;;;;;;;11.60;4.90;;;;;;;-144.73;34.88;82953.11;107112;1265;22524;-67
2023/06/16 10:43:32;;;;;;;11.60;5.20;;;;;;;-144.73;34.22;82923.08;106872;1267;25425;-69
2023/06/16 10:46:21;;;;;;;10.40;4.80;;;;;;;-144.73;34.16;82876.45;107242;1265;25466;-69
2023/06/16 10:49:08;;;;;;;9.30;4.10;;;;;;;-144.73;33.73;82876.45;107183;1267;25516;-62
2023/06/16 10:51:56;;;;;;;7.50;4.50;;;;;;;-144.73;34.24;82850.77;106826;1262;25451;-69
2023/06/16 10:54:51;;;;;;;8.20;4.30;;;;;;;-144.73;34.26;82864.20;107027;1262;25336;-65
2023/06/16 10:57:41;;;;;;;14.40;4.20;;;;;;;-144.73;34.42;82853.54;106549;1267;25551;-64
2023/06/16 11:00:27;;;;;;;10.70;4.00;;;;;;;-144.73;33.75;82806.52;106849;1269;25432;-71
2023/06/16 11:03:13;;;;;;;10.10;4.50;;;;;;;-144.73;33.14;82803.36;106666;1267;25621;-66
2023/06/16 11:06:00;;;;;;;8.70;3.90;;;;;;;-144.73;33.17;82849.98;106741;1267;25522;-71
2023/06/16 11:08:54;;;;;;;7.00;3.90;;;;;;;-144.73;33.35;82900.95;106726;1265;25335;-66
2023/06/16 11:11:40;;;;;;;7.70;3.90;;;;;;;-144.73;33.08;82923.86;106782;1267;25367;-70
2023/06/16 11:14:26;;;;;;;10.20;3.80;;;;;;;-144.73;33.14;82911.23;107366;1261;25328;-67
2023/06/16 11:17:13;;;;;;;7.50;3.90;;;;;;;-144.73;33.22;82898.58;106645;1271;25339;-67
2023/06/16 11:20:05;;;;;;;12.50;4.10;;;;;;;-144.73;33.30;82832.98;106640;1268;25489;-65
2023/06/16 11:22:51;;;;;;;8.30;4.30;;;;;;;-144.73;32.91;82793.08;106825;1261;25480;-66
2023/06/16 11:25:38;;;;;;;8.20;3.80;;;;;;;-144.73;32.93;82814.81;106691;1267;25435;-66
2023/06/16 11:28:25;;;;;;;7.30;3.60;;;;;;;-144.73;32.62;82807.70;106708;1267;25370;-64
2023/06/16 11:31:13;;;;;;;8.80;3.60;;;;;;;-144.73;32.82;82782.80;106666;1271;25554;-65
2023/06/16 11:33:59;;;;;;;8.30;3.50;;;;;;;-144.73;32.81;82765.03;106668;1262;25589;-66
2023/06/16 11:36:47;;;;;;;8.10;3.70;;;;;;;-144.73;32.47;82729.47;106660;1266;25465;-65
2023/06/16 11:39:46;;;;;;;9.00;3.40;;;;;;;-144.73;31.97;82790.32;106671;1262;25393;-64
2023/06/16 11:42:33;;;;;;;9.50;3.90;;;;;;;-144.73;32.27;82843.66;106654;1266;25563;-65
2023/06/16 11:45:18;;;;;;;6.60;3.40;;;;;;;-144.73;32.20;82808.89;106813;1262;25418;-65
2023/06/16 11:48:07;;;;;;;9.50;3.70;;;;;;;-144.73;32.52;82759.50;106818;1264;25331;-66
2023/06/16 11:50:53;;;;;;;8.20;3.30;;;;;;;-144.73;32.16;82706.95;106797;1266;25628;-65
2023/06/16 11:53:39;;;;;;;10.50;4.40;;;;;;;-144.73;31.85;82655.19;107013;1267;25651;-66
2023/06/16 11:56:25;;;;;;;12.90;3.90;;;;;;;-144.73;31.91;82579.73;106881;1268;25347;-63
2023/06/16 11:59:13;;;;;;;11.30;4.10;;;;;;;-144.73;31.56;82510.19;106656;1264;25331;-67
2023/06/16 12:02:00;;;;;;;5.60;3.10;;;;;;;-144.73;31.46;82454.88;106751;1267;25352;-66
2023/06/16 12:04:47;;;;;;;5.50;3.10;;;;;;;-144.73;30.98;82485.30;106867;1265;23249;-66
2023/06/16 12:07:33;;;;;;;9.40;3.80;;;;;;;-144.73;31.16;82534.69;106907;1265;25368;-67
2023/06/16 12:10:19;;;;;;;9.30;4.40;;;;;;;-144.73;31.19;82564.31;106811;1262;25318;-68
2023/06/16 12:13:07;;;;;;;9.60;3.50;;;;;;;-144.73;32.03;82701.41;106779;1264;22521;-65
2023/06/16 12:15:53;;;;;;;10.80;4.50;;;;;;;-144.73;32.06;82745.66;106706;1266;25390;-65
2023/06/16 12:18:38;;;;;;;10.00;4.10;;;;;;;-144.73;31.89;82751.59;107101;1268;23457;-69
2023/06/16 12:21:26;;;;;;;8.30;3.90;;;;;;;-144.73;31.62;82726.30;107048;1267;22541;-68
2023/06/16 12:24:11;;;;;;;6.90;3.90;;;;;;;-144.73;31.68;82712.08;107118;1267;25584;-64
2023/06/16 12:26:57;;;;;;;8.60;3.80;;;;;;;-144.73;31.23;82670.60;106993;1267;22533;-67
2023/06/16 12:29:44;;;;;;;7.30;4.10;;;;;;;-144.73;31.51;82648.47;106771;1267;23200;-68
2023/06/16 12:32:33;;;;;;;8.70;3.90;;;;;;;-144.73;31.56;82591.98;107053;1262;22686;-69